sensor_id;sensor_type;location;lat;lon;timestamp;P1;durP1;ratioP1;P2;durP2;ratioP2
57893;SDS011;43710;47.460;19.034;2023-01-25T05:00:10;34.78;;;21.40;;
57893;SDS011;43710;47.460;19.034;2023-01-25T05:03:14;36.35;;;22.77;;
57893;SDS011;43710;47.460;19.034;2023-01-25T05:06:17;36.30;;;21.33;;
57893;SDS011;43710;47.460;19.034;2023-01-25T05:09:19;35.97;;;22.25;;
57893;SDS011;43710;47.460;19.034;2023-01-25T05:12:22;34.05;;;22.70;;
57893;SDS011;43710;47.460;19.034;2023-01-25T05:15:25;35.95;;;21.75;;
57893;SDS011;43710;47.460;19.034;2023-01-25T05:18:27;36.78;;;22.37;;
57893;SDS011;43710;47.460;19.034;2023-01-25T05:21:44;36.58;;;22.77;;
57893;SDS011;43710;47.460;19.034;2023-01-25T05:24:59;33.47;;;22.35;;
57893;SDS011;43710;47.460;19.034;2023-01-25T05:28:04;37.13;;;22.70;;
57893;SDS011;43710;47.460;19.034;2023-01-25T05:31:08;34.60;;;22.27;;
57893;SDS011;43710;47.460;19.034;2023-01-25T05:34:11;33.47;;;22.80;;
57893;SDS011;43710;47.460;19.034;2023-01-25T05:37:14;35.00;;;22.58;;
57893;SDS011;43710;47.460;19.034;2023-01-25T05:40:19;33.70;;;21.63;;
57893;SDS011;43710;47.460;19.034;2023-01-25T05:43:21;33.05;;;21.20;;
57893;SDS011;43710;47.460;19.034;2023-01-25T05:46:26;29.40;;;19.30;;
57893;SDS011;43710;47.460;19.034;2023-01-25T05:49:30;31.65;;;20.45;;
57893;SDS011;43710;47.460;19.034;2023-01-25T05:52:32;28.33;;;20.02;;
57893;SDS011;43710;47.460;19.034;2023-01-25T05:55:35;28.27;;;19.73;;
57893;SDS011;43710;47.460;19.034;2023-01-25T05:58:38;31.45;;;20.02;;
57893;SDS011;43710;47.460;19.034;2023-01-25T06:01:40;28.85;;;19.27;;
57893;SDS011;43710;47.460;19.034;2023-01-25T06:04:43;24.92;;;17.77;;
57893;SDS011;43710;47.460;19.034;2023-01-25T06:07:46;26.83;;;17.77;;
57893;SDS011;43710;47.460;19.034;2023-01-25T06:10:48;24.17;;;17.12;;
57893;SDS011;43710;47.460;19.034;2023-01-25T06:13:52;27.33;;;18.60;;
57893;SDS011;43710;47.460;19.034;2023-01-25T06:16:54;28.98;;;18.10;;
57893;SDS011;43710;47.460;19.034;2023-01-25T06:19:57;27.65;;;17.37;;
57893;SDS011;43710;47.460;19.034;2023-01-25T06:23:00;22.30;;;15.05;;
57893;SDS011;43710;47.460;19.034;2023-01-25T06:26:03;22.95;;;14.55;;
57893;SDS011;43710;47.460;19.034;2023-01-25T06:29:08;21.40;;;14.18;;
57893;SDS011;43710;47.460;19.034;2023-01-25T06:32:10;22.27;;;13.88;;
57893;SDS011;43710;47.460;19.034;2023-01-25T06:35:13;20.70;;;12.90;;
57893;SDS011;43710;47.460;19.034;2023-01-25T06:38:15;39.50;;;14.52;;
57893;SDS011;43710;47.460;19.034;2023-01-25T06:41:18;29.25;;;13.00;;
57893;SDS011;43710;47.460;19.034;2023-01-25T06:44:21;20.23;;;13.13;;
57893;SDS011;43710;47.460;19.034;2023-01-25T06:47:23;22.65;;;13.07;;
57893;SDS011;43710;47.460;19.034;2023-01-25T06:50:25;21.55;;;14.50;;
57893;SDS011;43710;47.460;19.034;2023-01-25T06:53:29;21.92;;;14.57;;
57893;SDS011;43710;47.460;19.034;2023-01-25T06:56:32;22.55;;;15.00;;
57893;SDS011;43710;47.460;19.034;2023-01-25T06:59:35;21.10;;;13.05;;
57893;SDS011;43710;47.460;19.034;2023-01-25T07:02:37;20.20;;;12.68;;
57893;SDS011;43710;47.460;19.034;2023-01-25T07:05:40;20.40;;;13.40;;
57893;SDS011;43710;47.460;19.034;2023-01-25T07:08:42;18.75;;;12.63;;
57893;SDS011;43710;47.460;19.034;2023-01-25T07:11:45;20.35;;;13.38;;
57893;SDS011;43710;47.460;19.034;2023-01-25T07:14:48;18.37;;;11.98;;
57893;SDS011;43710;47.460;19.034;2023-01-25T07:17:50;18.67;;;12.90;;
57893;SDS011;43710;47.460;19.034;2023-01-25T07:20:53;19.77;;;12.80;;
57893;SDS011;43710;47.460;19.034;2023-01-25T07:23:58;19.60;;;13.40;;
57893;SDS011;43710;47.460;19.034;2023-01-25T07:27:03;18.60;;;12.55;;
57893;SDS011;43710;47.460;19.034;2023-01-25T07:30:05;18.45;;;12.77;;
57893;SDS011;43710;47.460;19.034;2023-01-25T07:33:09;19.77;;;13.10;;
57893;SDS011;43710;47.460;19.034;2023-01-25T07:36:12;21.95;;;13.68;;
57893;SDS011;43710;47.460;19.034;2023-01-25T07:39:15;20.65;;;13.62;;
57893;SDS011;43710;47.460;19.034;2023-01-25T07:42:18;18.45;;;13.23;;
57893;SDS011;43710;47.460;19.034;2023-01-25T07:45:23;22.33;;;14.02;;
57893;SDS011;43710;47.460;19.034;2023-01-25T07:48:31;19.23;;;12.57;;
57893;SDS011;43710;47.460;19.034;2023-01-25T07:51:34;18.75;;;12.77;;
57893;SDS011;43710;47.460;19.034;2023-01-25T07:54:36;19.85;;;12.20;;
57893;SDS011;43710;47.460;19.034;2023-01-25T07:57:38;18.50;;;12.77;;
57893;SDS011;43710;47.460;19.034;2023-01-25T08:00:41;21.95;;;13.80;;
57893;SDS011;43710;47.460;19.034;2023-01-25T08:03:43;21.23;;;13.80;;
57893;SDS011;43710;47.460;19.034;2023-01-25T08:06:47;21.48;;;13.55;;
57893;SDS011;43710;47.460;19.034;2023-01-25T08:09:49;24.77;;;16.02;;
57893;SDS011;43710;47.460;19.034;2023-01-25T08:12:51;22.45;;;14.05;;
57893;SDS011;43710;47.460;19.034;2023-01-25T08:15:54;22.08;;;14.77;;
57893;SDS011;43710;47.460;19.034;2023-01-25T08:18:57;22.30;;;14.27;;
57893;SDS011;43710;47.460;19.034;2023-01-25T08:22:01;23.10;;;14.27;;
57893;SDS011;43710;47.460;19.034;2023-01-25T08:25:03;20.80;;;13.70;;
57893;SDS011;43710;47.460;19.034;2023-01-25T08:28:06;24.37;;;15.57;;
57893;SDS011;43710;47.460;19.034;2023-01-25T08:34:22;20.40;;;13.13;;
57893;SDS011;43710;47.460;19.034;2023-01-25T08:37:24;21.42;;;14.18;;
57893;SDS011;43710;47.460;19.034;2023-01-25T08:40:30;19.70;;;13.73;;
57893;SDS011;43710;47.460;19.034;2023-01-25T08:43:32;23.75;;;14.30;;
57893;SDS011;43710;47.460;19.034;2023-01-25T08:46:35;22.33;;;14.02;;
57893;SDS011;43710;47.460;19.034;2023-01-25T08:49:37;22.05;;;14.32;;
57893;SDS011;43710;47.460;19.034;2023-01-25T08:52:40;20.73;;;14.52;;
57893;SDS011;43710;47.460;19.034;2023-01-25T08:55:42;22.98;;;12.98;;
57893;SDS011;43710;47.460;19.034;2023-01-25T08:58:45;18.48;;;11.98;;
57893;SDS011;43710;47.460;19.034;2023-01-25T09:01:48;18.98;;;12.27;;
57893;SDS011;43710;47.460;19.034;2023-01-25T09:04:51;22.37;;;13.15;;
57893;SDS011;43710;47.460;19.034;2023-01-25T09:07:54;19.12;;;12.98;;
57893;SDS011;43710;47.460;19.034;2023-01-25T09:11:04;23.90;;;13.02;;
57893;SDS011;43710;47.460;19.034;2023-01-25T09:14:07;23.33;;;13.18;;
57893;SDS011;43710;47.460;19.034;2023-01-25T09:17:10;21.35;;;13.85;;
57893;SDS011;43710;47.460;19.034;2023-01-25T09:20:12;23.62;;;13.98;;
57893;SDS011;43710;47.460;19.034;2023-01-25T09:23:17;33.25;;;18.50;;
57893;SDS011;43710;47.460;19.034;2023-01-25T09:29:26;28.65;;;16.30;;
57893;SDS011;43710;47.460;19.034;2023-01-25T09:32:28;21.60;;;13.73;;
57893;SDS011;43710;47.460;19.034;2023-01-25T09:35:31;22.48;;;14.35;;
57893;SDS011;43710;47.460;19.034;2023-01-25T09:38:36;29.40;;;19.77;;
57893;SDS011;43710;47.460;19.034;2023-01-25T09:48:20;29.17;;;15.38;;
57893;SDS011;43710;47.460;19.034;2023-01-25T09:55:12;22.20;;;15.05;;
57893;SDS011;43710;47.460;19.034;2023-01-25T09:58:18;25.67;;;16.23;;
57893;SDS011;43710;47.460;19.034;2023-01-25T10:01:54;22.75;;;16.00;;
57893;SDS011;43710;47.460;19.034;2023-01-25T10:05:12;23.50;;;14.65;;
57893;SDS011;43710;47.460;19.034;2023-01-25T10:11:45;19.95;;;13.98;;
57893;SDS011;43710;47.460;19.034;2023-01-25T10:14:49;20.52;;;14.25;;
57893;SDS011;43710;47.460;19.034;2023-01-25T10:21:41;25.95;;;15.02;;
57893;SDS011;43710;47.460;19.034;2023-01-25T10:31:19;25.12;;;15.75;;
57893;SDS011;43710;47.460;19.034;2023-01-25T10:34:34;23.77;;;15.23;;
57893;SDS011;43710;47.460;19.034;2023-01-25T10:38:01;24.08;;;14.85;;
57893;SDS011;43710;47.460;19.034;2023-01-25T10:44:17;22.25;;;14.32;;
57893;SDS011;43710;47.460;19.034;2023-01-25T10:47:24;23.15;;;12.88;;
57893;SDS011;43710;47.460;19.034;2023-01-25T10:53:47;20.20;;;12.75;;
57893;SDS011;43710;47.460;19.034;2023-01-25T10:57:02;20.60;;;12.57;;
57893;SDS011;43710;47.460;19.034;2023-01-25T11:00:13;18.97;;;12.70;;
57893;SDS011;43710;47.460;19.034;2023-01-25T11:03:42;20.35;;;12.20;;
57893;SDS011;43710;47.460;19.034;2023-01-25T11:09:52;24.05;;;13.62;;
57893;SDS011;43710;47.460;19.034;2023-01-25T11:13:14;20.83;;;13.00;;
57893;SDS011;43710;47.460;19.034;2023-01-25T11:16:28;21.08;;;12.02;;
57893;SDS011;43710;47.460;19.034;2023-01-25T11:19:37;20.90;;;12.90;;
57893;SDS011;43710;47.460;19.034;2023-01-25T11:22:51;23.25;;;13.65;;
57893;SDS011;43710;47.460;19.034;2023-01-25T11:25:54;21.23;;;12.48;;
57893;SDS011;43710;47.460;19.034;2023-01-25T11:32:20;18.52;;;12.63;;
57893;SDS011;43710;47.460;19.034;2023-01-25T11:35:26;21.17;;;12.57;;
57893;SDS011;43710;47.460;19.034;2023-01-25T11:38:33;15.80;;;11.73;;
57893;SDS011;43710;47.460;19.034;2023-01-25T11:44:48;21.75;;;13.50;;
57893;SDS011;43710;47.460;19.034;2023-01-25T11:48:16;18.90;;;12.90;;
57893;SDS011;43710;47.460;19.034;2023-01-25T11:51:26;18.77;;;13.38;;
57893;SDS011;43710;47.460;19.034;2023-01-25T11:54:37;18.60;;;12.25;;
57893;SDS011;43710;47.460;19.034;2023-01-25T12:14:25;29.85;;;14.25;;
57893;SDS011;43710;47.460;19.034;2023-01-25T12:21:34;22.62;;;13.30;;
57893;SDS011;43710;47.460;19.034;2023-01-25T12:39:03;23.70;;;15.27;;
57893;SDS011;43710;47.460;19.034;2023-01-25T12:42:13;22.30;;;14.67;;
57893;SDS011;43710;47.460;19.034;2023-01-25T12:45:24;18.83;;;14.07;;
57893;SDS011;43710;47.460;19.034;2023-01-25T12:48:30;23.03;;;14.63;;
57893;SDS011;43710;47.460;19.034;2023-01-25T12:51:38;21.15;;;13.35;;
57893;SDS011;43710;47.460;19.034;2023-01-25T12:54:42;21.90;;;13.55;;
57893;SDS011;43710;47.460;19.034;2023-01-25T13:01:18;22.15;;;13.50;;
57893;SDS011;43710;47.460;19.034;2023-01-25T13:11:36;21.42;;;13.93;;
57893;SDS011;43710;47.460;19.034;2023-01-25T13:14:41;19.20;;;12.95;;
57893;SDS011;43710;47.460;19.034;2023-01-25T13:17:43;21.55;;;13.38;;
57893;SDS011;43710;47.460;19.034;2023-01-25T13:20:46;19.65;;;13.62;;
57893;SDS011;43710;47.460;19.034;2023-01-25T13:24:06;19.67;;;13.90;;
57893;SDS011;43710;47.460;19.034;2023-01-25T13:27:23;22.08;;;13.85;;
57893;SDS011;43710;47.460;19.034;2023-01-25T13:30:29;22.08;;;14.20;;
57893;SDS011;43710;47.460;19.034;2023-01-25T13:33:34;20.98;;;13.60;;
57893;SDS011;43710;47.460;19.034;2023-01-25T13:39:49;18.92;;;12.55;;
57893;SDS011;43710;47.460;19.034;2023-01-25T13:42:58;21.62;;;14.05;;
57893;SDS011;43710;47.460;19.034;2023-01-25T13:46:03;19.90;;;13.20;;
57893;SDS011;43710;47.460;19.034;2023-01-25T13:49:12;23.23;;;13.82;;
57893;SDS011;43710;47.460;19.034;2023-01-25T13:52:23;21.65;;;13.93;;
57893;SDS011;43710;47.460;19.034;2023-01-25T13:55:27;24.27;;;14.23;;
57893;SDS011;43710;47.460;19.034;2023-01-25T13:58:31;25.02;;;14.38;;
57893;SDS011;43710;47.460;19.034;2023-01-25T14:01:37;25.60;;;13.90;;
57893;SDS011;43710;47.460;19.034;2023-01-25T14:04:39;54.90;;;38.00;;
57893;SDS011;43710;47.460;19.034;2023-01-25T14:07:42;23.40;;;13.30;;
57893;SDS011;43710;47.460;19.034;2023-01-25T14:10:46;20.27;;;12.02;;
57893;SDS011;43710;47.460;19.034;2023-01-25T14:14:00;23.75;;;13.35;;
57893;SDS011;43710;47.460;19.034;2023-01-25T14:17:23;22.73;;;14.57;;
57893;SDS011;43710;47.460;19.034;2023-01-25T14:20:26;22.95;;;14.60;;
57893;SDS011;43710;47.460;19.034;2023-01-25T14:23:28;21.85;;;13.23;;
57893;SDS011;43710;47.460;19.034;2023-01-25T14:26:35;26.00;;;16.02;;
57893;SDS011;43710;47.460;19.034;2023-01-25T14:29:40;20.95;;;13.50;;
57893;SDS011;43710;47.460;19.034;2023-01-25T14:32:42;28.45;;;16.95;;
57893;SDS011;43710;47.460;19.034;2023-01-25T14:35:46;30.12;;;22.73;;
57893;SDS011;43710;47.460;19.034;2023-01-25T14:38:57;24.37;;;12.90;;
57893;SDS011;43710;47.460;19.034;2023-01-25T14:42:00;22.00;;;13.23;;
57893;SDS011;43710;47.460;19.034;2023-01-25T14:45:03;25.08;;;13.77;;
57893;SDS011;43710;47.460;19.034;2023-01-25T14:48:31;33.70;;;20.27;;
57893;SDS011;43710;47.460;19.034;2023-01-25T14:57:51;26.42;;;15.60;;
57893;SDS011;43710;47.460;19.034;2023-01-25T15:00:59;24.73;;;15.00;;
57893;SDS011;43710;47.460;19.034;2023-01-25T15:04:04;24.45;;;15.07;;
57893;SDS011;43710;47.460;19.034;2023-01-25T15:07:29;31.12;;;16.37;;
57893;SDS011;43710;47.460;19.034;2023-01-25T15:10:53;24.00;;;14.70;;
57893;SDS011;43710;47.460;19.034;2023-01-25T15:14:01;22.87;;;14.98;;
57893;SDS011;43710;47.460;19.034;2023-01-25T15:17:05;27.85;;;17.42;;
57893;SDS011;43710;47.460;19.034;2023-01-25T15:23:31;27.60;;;16.02;;
57893;SDS011;43710;47.460;19.034;2023-01-25T15:26:34;24.02;;;15.85;;
57893;SDS011;43710;47.460;19.034;2023-01-25T15:29:37;25.90;;;15.43;;
57893;SDS011;43710;47.460;19.034;2023-01-25T15:32:41;29.23;;;15.75;;
57893;SDS011;43710;47.460;19.034;2023-01-25T15:35:44;26.37;;;17.60;;
57893;SDS011;43710;47.460;19.034;2023-01-25T15:38:47;30.80;;;17.62;;
57893;SDS011;43710;47.460;19.034;2023-01-25T15:41:49;25.73;;;16.85;;
57893;SDS011;43710;47.460;19.034;2023-01-25T15:44:52;25.85;;;16.75;;
57893;SDS011;43710;47.460;19.034;2023-01-25T15:47:54;24.45;;;16.37;;
57893;SDS011;43710;47.460;19.034;2023-01-25T15:50:56;22.92;;;16.17;;
57893;SDS011;43710;47.460;19.034;2023-01-25T15:53:59;26.52;;;16.12;;
57893;SDS011;43710;47.460;19.034;2023-01-25T15:57:02;25.88;;;16.62;;
57893;SDS011;43710;47.460;19.034;2023-01-25T16:00:04;36.85;;;17.65;;
57893;SDS011;43710;47.460;19.034;2023-01-25T16:03:07;25.50;;;17.25;;
57893;SDS011;43710;47.460;19.034;2023-01-25T16:09:41;28.58;;;18.37;;
57893;SDS011;43710;47.460;19.034;2023-01-25T16:12:44;25.67;;;19.20;;
57893;SDS011;43710;47.460;19.034;2023-01-25T16:15:48;27.05;;;17.85;;
57893;SDS011;43710;47.460;19.034;2023-01-25T16:18:52;28.62;;;19.40;;
57893;SDS011;43710;47.460;19.034;2023-01-25T16:21:55;25.52;;;17.35;;
57893;SDS011;43710;47.460;19.034;2023-01-25T16:24:57;26.75;;;17.85;;
57893;SDS011;43710;47.460;19.034;2023-01-25T16:28:01;28.83;;;18.17;;
57893;SDS011;43710;47.460;19.034;2023-01-25T16:31:04;29.30;;;18.37;;
57893;SDS011;43710;47.460;19.034;2023-01-25T16:34:07;24.35;;;17.40;;
57893;SDS011;43710;47.460;19.034;2023-01-25T16:37:13;26.75;;;18.37;;
57893;SDS011;43710;47.460;19.034;2023-01-25T16:40:20;28.38;;;17.73;;
57893;SDS011;43710;47.460;19.034;2023-01-25T16:43:25;28.23;;;18.60;;
57893;SDS011;43710;47.460;19.034;2023-01-25T16:46:39;31.70;;;20.30;;
57893;SDS011;43710;47.460;19.034;2023-01-25T16:49:42;38.30;;;26.33;;
57893;SDS011;43710;47.460;19.034;2023-01-25T16:52:44;39.03;;;29.05;;
57893;SDS011;43710;47.460;19.034;2023-01-25T16:55:46;34.90;;;21.35;;
57893;SDS011;43710;47.460;19.034;2023-01-25T16:58:50;31.65;;;23.67;;
